• Join FlightAware (Why Join?)
  • Login
  • US Flag 
10:54AM EDT


 

Airport Tracker/Info


-or-


 

Live Flight TrackerFlight Track Log ✈ EGF3395 ✈ 24-Apr-2013 ✈ KCHS - KDFW

Flight Track Log - Related Links

Times and Time Zones

All times are in EDT time to prevent confusion due to time zone crossing. See the EGF3395 flight status page for this flight to view local times or setup timezone preferences in your user account.

Time Position Orientation Groundspeed Altitude Reporting Facility
EDT Latitude Longitude Course Direction KTS MPH feet Rate Location/Type
06:08AM 32.9333 -80.3084 270° West  Level FlightAware Approximate
06:08AM 32.9506 -80.1350 276° West 222 255 3,700  Level Jacksonville Center
06:09AM 32.9334 -80.4160 270° West  Level FlightAware Approximate
06:09AM 32.9483 -80.2217 268° West 234 269 6,200  Level Jacksonville Center
06:10AM 32.9340 -80.5235 276° West  Level FlightAware Approximate
06:10AM 32.9458 -80.3083 268° West 251 289 8,600  Level Jacksonville Center
06:11AM 32.9437 -80.6304 276° West  Level FlightAware Approximate
06:11AM 32.9436 -80.3975 268° West 267 307 10,500  Level Jacksonville Center
06:12AM 32.9534 -80.7374 276° West  Level FlightAware Approximate
06:12AM 32.9392 -80.4967 267° West 288 331 12,000  Level Jacksonville Center
06:13AM 32.9636 -80.8490 276° West  Level FlightAware Approximate
06:13AM 32.9475 -80.6028 275° West 303 349 13,500  Level Jacksonville Center
06:14AM 32.9597 -80.7139 277° West 326 375 15,200 1,560 Climbing Jacksonville Center
06:15AM 32.9681 -80.8228 275° West 332 382 16,700 1,260 Climbing Jacksonville Center
06:16AM 32.9736 -80.9192 274° West 332 382 17,800 1,200 Climbing Jacksonville Center
06:17AM 32.9464 -81.0436 255° West 340 391 19,100 1,260 Climbing Jacksonville Center
06:19AM 32.8894 -81.3078 256° West 362 417 22,200 1,260 Climbing Atlanta Center
06:20AM 32.8647 -81.4250 256° West 362 417 23,500 1,260 Climbing Atlanta Center
06:21AM 32.8400 -81.5392 256° West 362 417 24,800 1,200 Climbing Atlanta Center
06:22AM 32.8172 -81.6536 257° West 362 417 26,000 1,200 Climbing Atlanta Center
06:23AM 32.7925 -81.7753 256° West 362 417 27,200 1,140 Climbing Atlanta Center
06:24AM 32.7672 -81.8897 255° West 362 417 28,300 1,140 Climbing Atlanta Center
06:25AM 32.7419 -82.0014 255° West 362 417 29,500 1,140 Climbing Atlanta Center
06:26AM 32.7189 -82.1131 256° West 362 417 30,600 1,140 Climbing Atlanta Center
06:27AM 32.6933 -82.2322 256° West 357 411 31,800 1,200 Climbing Atlanta Center
06:28AM 32.6700 -82.3461 256° West 362 417 33,000 1,140 Climbing Atlanta Center
06:29AM 32.6422 -82.4600 254° West 362 417 34,100 1,020 Climbing Atlanta Center
06:30AM 32.6186 -82.5739 256° West 362 417 35,100 900 Climbing Atlanta Center
06:31AM 32.5908 -82.6853 254° West 362 417 36,000 420 Climbing Atlanta Center
06:32AM 32.5669 -82.8039 257° West 362 417 36,000  Level Atlanta Center
06:33AM 32.5514 -82.9275 262° West 368 423 36,000  Level Atlanta Center
06:34AM 32.5461 -83.0483 267° West 373 429 36,000  Level Atlanta Center
06:35AM 32.5344 -83.1642 263° West 366 421 36,000  Level Atlanta Center
06:36AM 32.5269 -83.2825 266° West 366 421 36,000  Level Atlanta Center
06:37AM 32.5150 -83.3933 263° West 360 414 36,000  Level Atlanta Center
06:38AM 32.5053 -83.5069 264° West 355 409 36,000  Level Atlanta Center
06:39AM 32.4953 -83.6203 264° West 350 403 36,000  Level Atlanta Center
06:40AM 32.4850 -83.7311 264° West 350 403 36,000  Level Atlanta Center
06:41AM 32.4750 -83.8444 264° West 350 403 36,000  Level Atlanta Center
06:42AM 32.4647 -83.9650 264° West 355 409 36,000  Level Atlanta Center
06:43AM 32.4542 -84.0806 264° West 355 409 36,000  Level Atlanta Center
06:44AM 32.4417 -84.1964 263° West 360 414 36,000  Level Atlanta Center
06:45AM 32.4308 -84.3144 264° West 365 420 36,000  Level Atlanta Center
06:46AM 32.4203 -84.4325 264° West 371 427 36,000  Level Atlanta Center
06:47AM 32.4072 -84.5531 263° West 371 427 36,000  Level Atlanta Center
06:48AM 32.3961 -84.6711 264° West 366 421 36,000  Level Atlanta Center
06:49AM 32.3831 -84.7914 263° West 371 427 36,000  Level Atlanta Center
06:50AM 32.3678 -84.8994 261° West 362 417 36,000  Level Atlanta Center
06:51AM 32.3606 -85.0175 266° West 357 411 36,000  Level Atlanta Center
06:52AM 32.3492 -85.1306 263° West 357 411 36,000  Level Atlanta Center
06:53AM 32.3356 -85.2458 262° West 357 411 36,000  Level Atlanta Center
06:54AM 32.3239 -85.3589 263° West 357 411 36,000  Level Atlanta Center
06:55AM 32.3144 -85.4767 265° West 357 411 36,000  Level Atlanta Center
06:56AM 32.3025 -85.5894 263° West 352 405 36,000  Level Atlanta Center
06:57AM 32.2886 -85.7022 262° West 352 405 36,000  Level Atlanta Center
06:58AM 32.2786 -85.8225 264° West 352 405 36,000  Level Atlanta Center
06:59AM 32.2664 -85.9328 263° West 357 411 36,000  Level Atlanta Center
07:00AM 32.2500 -86.0478 260° West 357 411 36,000  Level Atlanta Center
07:01AM 32.2375 -86.1753 263° West 357 411 36,000  Level Atlanta Center
07:02AM 32.2336 -86.2781 267° West 352 405 36,000  Level Atlanta Center
07:03AM 32.2269 -86.4033 266° West 352 405 36,000  Level Atlanta Center
07:04AM 32.2397 -86.5042 279° West 348 400 36,000  Level Atlanta Center
07:05AM 32.2478 -86.6175 275° West 348 400 36,000  Level Atlanta Center
07:06AM 32.2536 -86.7381 273° West 348 400 36,000  Level Atlanta Center
07:07AM 32.2614 -86.8511 275° West 348 400 36,000  Level Atlanta Center
07:08AM 32.2672 -86.9619 274° West 348 400 36,000  Level Atlanta Center
07:09AM 32.2769 -87.0728 276° West 348 400 36,000  Level Atlanta Center
07:10AM 32.2825 -87.1858 273° West 348 400 36,000  Level Atlanta Center
07:11AM 32.2881 -87.2967 273° West 348 400 36,000  Level Atlanta Center
07:12AM 32.2994 -87.4150 277° West 354 407 36,000  Level Atlanta Center
07:13AM 32.3069 -87.5258 275° West 354 407 36,000  Level Atlanta Center
07:15AM 32.3211 -87.7589 274° West 335 386 36,000  Level Memphis Center
07:16AM 32.3297 -87.8692 275° West 340 391 36,000  Level Memphis Center
07:17AM 32.3339 -87.9822 273° West 345 397 36,000  Level Memphis Center
07:18AM 32.3403 -88.0953 274° West 345 397 36,000  Level Memphis Center
07:19AM 32.3464 -88.2058 274° West 345 397 36,000  Level Memphis Center
07:20AM 32.3525 -88.3186 274° West 345 397 36,000  Level Memphis Center
07:21AM 32.3583 -88.4194 274° West 345 397 36,000  Level Memphis Center
07:22AM 32.3642 -88.5325 274° West 345 397 36,000  Level Memphis Center
07:23AM 32.3719 -88.6406 275° West 345 397 36,000  Level Memphis Center
07:24AM 32.3775 -88.7486 274° West 345 397 36,000  Level Memphis Center
07:25AM 32.3853 -88.8592 275° West 345 397 36,000  Level Memphis Center
07:26AM 32.3761 -88.9700 264° West 345 397 36,000  Level Memphis Center
07:27AM 32.3606 -89.0833 261° West 350 403 36,000  Level Memphis Center
07:28AM 32.3469 -89.1917 262° West 350 403 36,000  Level Memphis Center
07:29AM 32.3397 -89.3025 266° West 350 403 36,000  Level Memphis Center
07:30AM 32.3883 -89.4003 301° West 330 380 36,000  Level Memphis Center
07:31AM 32.4497 -89.4883 310° West 341 392 36,000  Level Memphis Center
07:32AM 32.5128 -89.5814 309° West 346 398 36,000  Level Memphis Center
07:33AM 32.5803 -89.6842 308° West 360 414 36,000  Level Memphis Center
07:34AM 32.6433 -89.7775 309° West 360 414 36,000  Level Memphis Center
07:35AM 32.6958 -89.8586 308° West 360 414 36,000  Level Memphis Center
07:36AM 32.7547 -89.9547 306° West 360 414 36,000  Level Memphis Center
07:37AM 32.8156 -90.0483 308° West 360 414 36,000  Level Memphis Center
07:38AM 32.8783 -90.1419 309° West 360 414 36,000  Level Memphis Center
07:39AM 32.9392 -90.2383 307° West 360 414 36,000 -60 Level Memphis Center
07:40AM 32.9997 -90.3325 307° West 360 414 35,900  Descending Memphis Center
07:41AM 33.0497 -90.4242 303° West 355 409 36,000  Climbing Memphis Center
07:42AM 33.0683 -90.5358 281° West 333 383 36,000  Level Memphis Center
07:43AM 33.0642 -90.6497 268° West 342 394 36,000  Level Memphis Center
07:44AM 33.0469 -90.7661 260° West 348 400 36,000  Level Memphis Center
07:45AM 33.0403 -90.8803 266° West 348 400 36,000  Level Memphis Center
07:46AM 33.0336 -91.0064 266° West 348 400 36,000  Level Memphis Center
07:47AM 33.0267 -91.1231 266° West 348 400 36,000  Level Memphis Center
07:48AM 33.0258 -91.2344 270° West 348 400 36,000  Level Memphis Center
07:49AM 33.0022 -91.3431 255° West 348 400 36,000  Level Memphis Center
07:51AM 32.9617 -91.5039 253° West 330 380 36,000  Level Fort Worth Center
07:52AM 32.9314 -91.6147 252° West 337 388 36,000  Level Fort Worth Center
07:53AM 32.9033 -91.7328 254° West 352 405 36,000  Level Fort Worth Center
07:54AM 32.8764 -91.8286 252° West 359 413 36,000  Level Fort Worth Center
07:55AM 32.8500 -91.9389 254° West 354 407 36,000  Level Fort Worth Center
07:56AM 32.8192 -92.0497 252° West 354 407 36,000  Level Fort Worth Center
07:57AM 32.7906 -92.1600 253° West 348 400 36,000  Level Fort Worth Center
07:58AM 32.7636 -92.2653 253° West 348 400 36,000  Level Fort Worth Center
07:59AM 32.7344 -92.3731 252° West 348 400 36,000  Level Fort Worth Center
08:00AM 32.7056 -92.4833 253° West 348 400 36,000  Level Fort Worth Center
08:01AM 32.6764 -92.5936 253° West 354 407 36,000  Level Fort Worth Center
08:02AM 32.6450 -92.7039 251° West 354 407 36,000  Level Fort Worth Center
08:03AM 32.6158 -92.8164 253° West 354 407 36,000  Level Fort Worth Center
08:04AM 32.5844 -92.9264 251° West 349 402 36,000  Level Fort Worth Center
08:05AM 32.5547 -93.0361 252° West 349 402 36,000  Level Fort Worth Center
08:06AM 32.5231 -93.1486 252° West 349 402 36,000  Level Fort Worth Center
08:07AM 32.4933 -93.2583 252° West 349 402 36,000  Level Fort Worth Center
08:08AM 32.4636 -93.3656 252° West 349 402 36,000  Level Fort Worth Center
08:09AM 32.4336 -93.4753 252° West 354 407 36,000  Level Fort Worth Center
08:10AM 32.4036 -93.5872 252° West 354 407 36,000  Level Fort Worth Center
08:11AM 32.4031 -93.7031 270° West 346 398 36,000  Level Fort Worth Center
08:12AM 32.4042 -93.8186 271° West 346 398 36,000  Level Fort Worth Center
08:13AM 32.4075 -93.9364 272° West 352 405 36,000  Level Fort Worth Center
08:14AM 32.4064 -94.0497 269° West 352 405 36,000  Level Fort Worth Center
08:15AM 32.4094 -94.1653 272° West 352 405 36,000  Level Fort Worth Center
08:16AM 32.4103 -94.2808 271° West 352 405 36,000  Level Fort Worth Center
08:17AM 32.4114 -94.4089 271° West 352 405 36,000  Level Fort Worth Center
08:18AM 32.4142 -94.5244 272° West 352 405 36,000  Level Fort Worth Center
08:19AM 32.4147 -94.6400 270° West 352 405 36,000 -480 Level Fort Worth Center
08:20AM 32.4150 -94.7581 270° West 352 405 35,100 -1,020 Descending Fort Worth Center
08:22AM 32.3819 -94.9828 260° West 352 405 33,100 -1,020 Descending Fort Worth Center
08:23AM 32.3672 -95.0892 261° West 358 412 32,100 -1,020 Descending Fort Worth Center
08:24AM 32.3486 -95.2075 259° West 363 418 31,100 -1,080 Descending Fort Worth Center
08:25AM 32.3319 -95.3308 261° West 380 437 30,000 -1,080 Descending Fort Worth Center
08:26AM 32.3108 -95.4519 258° West 380 437 29,000 -1,020 Descending Fort Worth Center
08:27AM 32.2878 -95.5850 258° West 375 432 28,000 -1,260 Descending Fort Worth Center
08:28AM 32.2708 -95.7131 261° West 380 437 26,500 -1,800 Descending Fort Worth Center
08:29AM 32.2517 -95.8364 260° West 390 449 24,400 -2,340 Descending Fort Worth Center
08:30AM 32.2281 -95.9594 257° West 389 448 21,900 -2,760 Descending Fort Worth Center
08:31AM 32.2083 -96.0778 259° West 380 437 18,900 -2,880 Descending Fort Worth Center
08:32AM 32.1928 -96.1958 261° West 368 423 16,200 -2,820 Descending Fort Worth Center
08:33AM 32.2439 -96.2933 302° West 337 388 13,300 -2,640 Descending Fort Worth Center
08:34AM 32.3133 -96.3686 318° Northwest 324 373 11,000 -1,200 Descending Fort Worth Center
08:35AM 32.3744 -96.4442 314° West 323 372 11,000  Level Fort Worth Center
08:36AM 32.4250 -96.5003 317° Northwest 267 307 11,000 -720 Level Fort Worth Center
08:37AM 32.4778 -96.5614 316° Northwest 267 307 9,600 -1,560 Descending Fort Worth Center
08:38AM 32.4950 -96.6450 284° West 252 290 7,900 -1,560 Descending Fort Worth Center
08:39AM 32.5161 -96.7186 289° West 252 290 6,500 -1,320 Descending Fort Worth Center
08:40AM 32.5311 -96.7875 284° West 242 278 5,300 -780 Descending Fort Worth Center
08:41AM 32.5419 -96.8761 278° West 242 278 5,000 -480 Descending Fort Worth Center
08:42AM 32.5758 -96.9353 304° West 218 251 4,400 -480 Descending Fort Worth Center
08:43AM 32.6333 -96.9833 325° Northwest 219 252 4,000 -360 Descending Dallas / Fort Worth TRACON
08:44AM 32.6667 -97.0167 320° Northwest 198 228 3,700 -360 Descending Dallas / Fort Worth TRACON